sensor_id;sensor_type;location;lat;lon;timestamp;P1;durP1;ratioP1;P2;durP2;ratioP2
1164;SDS011;571;50.930;6.926;2023-09-30T00:01:17;7.10;;;4.67;;
1164;SDS011;571;50.930;6.926;2023-09-30T00:03:53;10.93;;;5.03;;
1164;SDS011;571;50.930;6.926;2023-09-30T00:06:41;9.33;;;5.17;;
1164;SDS011;571;50.930;6.926;2023-09-30T00:09:21;6.63;;;4.53;;
1164;SDS011;571;50.930;6.926;2023-09-30T00:14:36;10.63;;;5.40;;
1164;SDS011;571;50.930;6.926;2023-09-30T00:20:44;6.20;;;4.20;;
1164;SDS011;571;50.930;6.926;2023-09-30T00:23:34;6.53;;;3.70;;
1164;SDS011;571;50.930;6.926;2023-09-30T00:26:15;8.10;;;4.97;;
1164;SDS011;571;50.930;6.926;2023-09-30T00:28:53;6.70;;;4.50;;
1164;SDS011;571;50.930;6.926;2023-09-30T00:31:35;6.87;;;4.60;;
1164;SDS011;571;50.930;6.926;2023-09-30T00:34:13;10.17;;;4.60;;
1164;SDS011;571;50.930;6.926;2023-09-30T00:36:44;10.97;;;5.83;;
1164;SDS011;571;50.930;6.926;2023-09-30T00:39:24;7.83;;;5.43;;
1164;SDS011;571;50.930;6.926;2023-09-30T00:41:56;11.17;;;5.97;;
1164;SDS011;571;50.930;6.926;2023-09-30T00:44:32;9.93;;;5.10;;
1164;SDS011;571;50.930;6.926;2023-09-30T00:47:18;9.60;;;5.03;;
1164;SDS011;571;50.930;6.926;2023-09-30T00:52:48;10.70;;;5.00;;
1164;SDS011;571;50.930;6.926;2023-09-30T00:55:27;16.17;;;5.77;;
1164;SDS011;571;50.930;6.926;2023-09-30T00:58:02;8.40;;;5.63;;
1164;SDS011;571;50.930;6.926;2023-09-30T01:01:11;5.90;;;3.97;;
1164;SDS011;571;50.930;6.926;2023-09-30T01:03:37;8.30;;;4.73;;
1164;SDS011;571;50.930;6.926;2023-09-30T01:06:06;8.87;;;4.77;;
1164;SDS011;571;50.930;6.926;2023-09-30T01:08:33;8.83;;;4.23;;
1164;SDS011;571;50.930;6.926;2023-09-30T01:11:00;6.20;;;4.37;;
1164;SDS011;571;50.930;6.926;2023-09-30T01:13:31;8.73;;;5.63;;
1164;SDS011;571;50.930;6.926;2023-09-30T01:16:02;8.83;;;5.23;;
1164;SDS011;571;50.930;6.926;2023-09-30T01:18:29;9.83;;;4.63;;
1164;SDS011;571;50.930;6.926;2023-09-30T01:20:56;6.97;;;4.73;;
1164;SDS011;571;50.930;6.926;2023-09-30T01:23:25;7.50;;;5.23;;
1164;SDS011;571;50.930;6.926;2023-09-30T01:25:53;10.10;;;4.90;;
1164;SDS011;571;50.930;6.926;2023-09-30T01:28:20;8.23;;;5.20;;
1164;SDS011;571;50.930;6.926;2023-09-30T01:30:46;8.37;;;4.97;;
1164;SDS011;571;50.930;6.926;2023-09-30T01:33:13;6.47;;;4.40;;
1164;SDS011;571;50.930;6.926;2023-09-30T01:35:41;10.07;;;5.50;;
1164;SDS011;571;50.930;6.926;2023-09-30T01:38:08;9.67;;;5.57;;
1164;SDS011;571;50.930;6.926;2023-09-30T01:40:36;9.40;;;6.13;;
1164;SDS011;571;50.930;6.926;2023-09-30T01:43:03;8.60;;;4.77;;
1164;SDS011;571;50.930;6.926;2023-09-30T01:45:30;8.20;;;4.40;;
1164;SDS011;571;50.930;6.926;2023-09-30T01:47:57;10.00;;;4.67;;
1164;SDS011;571;50.930;6.926;2023-09-30T01:50:24;9.23;;;5.93;;
1164;SDS011;571;50.930;6.926;2023-09-30T01:52:50;8.53;;;5.20;;
1164;SDS011;571;50.930;6.926;2023-09-30T01:55:17;7.30;;;4.80;;
1164;SDS011;571;50.930;6.926;2023-09-30T01:57:45;6.70;;;4.20;;
1164;SDS011;571;50.930;6.926;2023-09-30T02:00:12;7.50;;;4.50;;
1164;SDS011;571;50.930;6.926;2023-09-30T02:02:39;8.30;;;5.13;;
1164;SDS011;571;50.930;6.926;2023-09-30T02:05:07;9.73;;;4.60;;
1164;SDS011;571;50.930;6.926;2023-09-30T02:07:34;12.90;;;4.60;;
1164;SDS011;571;50.930;6.926;2023-09-30T02:10:02;8.10;;;4.63;;
1164;SDS011;571;50.930;6.926;2023-09-30T02:12:29;10.40;;;4.57;;
1164;SDS011;571;50.930;6.926;2023-09-30T02:18:30;10.67;;;5.70;;
1164;SDS011;571;50.930;6.926;2023-09-30T02:42:10;6.40;;;4.70;;
1164;SDS011;571;50.930;6.926;2023-09-30T02:51:01;16.77;;;7.00;;
1164;SDS011;571;50.930;6.926;2023-09-30T02:57:27;8.43;;;5.10;;
1164;SDS011;571;50.930;6.926;2023-09-30T03:00:09;11.43;;;6.13;;
1164;SDS011;571;50.930;6.926;2023-09-30T03:02:59;10.27;;;5.10;;
1164;SDS011;571;50.930;6.926;2023-09-30T03:06:14;11.17;;;6.50;;
1164;SDS011;571;50.930;6.926;2023-09-30T03:09:01;10.67;;;5.30;;
1164;SDS011;571;50.930;6.926;2023-09-30T03:12:07;10.17;;;5.97;;
1164;SDS011;571;50.930;6.926;2023-09-30T03:14:44;10.17;;;5.50;;
1164;SDS011;571;50.930;6.926;2023-09-30T03:17:39;11.63;;;5.63;;
1164;SDS011;571;50.930;6.926;2023-09-30T03:20:21;7.77;;;5.70;;
1164;SDS011;571;50.930;6.926;2023-09-30T03:43:08;14.60;;;5.53;;
1164;SDS011;571;50.930;6.926;2023-09-30T03:45:44;11.37;;;6.10;;
1164;SDS011;571;50.930;6.926;2023-09-30T03:48:27;8.90;;;5.13;;
1164;SDS011;571;50.930;6.926;2023-09-30T03:51:09;10.80;;;6.37;;
1164;SDS011;571;50.930;6.926;2023-09-30T03:53:52;10.73;;;6.33;;
1164;SDS011;571;50.930;6.926;2023-09-30T04:00:24;12.77;;;7.27;;
1164;SDS011;571;50.930;6.926;2023-09-30T04:03:12;9.80;;;6.30;;
1164;SDS011;571;50.930;6.926;2023-09-30T04:11:58;9.57;;;5.50;;
1164;SDS011;571;50.930;6.926;2023-09-30T04:14:41;10.00;;;5.77;;
1164;SDS011;571;50.930;6.926;2023-09-30T04:17:40;7.50;;;6.00;;
1164;SDS011;571;50.930;6.926;2023-09-30T04:20:27;12.80;;;6.00;;
1164;SDS011;571;50.930;6.926;2023-09-30T04:23:20;8.43;;;5.40;;
1164;SDS011;571;50.930;6.926;2023-09-30T04:26:04;10.70;;;5.70;;
1164;SDS011;571;50.930;6.926;2023-09-30T04:28:49;11.50;;;5.90;;
1164;SDS011;571;50.930;6.926;2023-09-30T04:31:32;7.57;;;5.60;;
1164;SDS011;571;50.930;6.926;2023-09-30T04:34:17;11.07;;;7.00;;
1164;SDS011;571;50.930;6.926;2023-09-30T04:38:22;14.27;;;6.80;;
1164;SDS011;571;50.930;6.926;2023-09-30T04:43:54;9.40;;;5.60;;
1164;SDS011;571;50.930;6.926;2023-09-30T04:52:59;11.20;;;6.10;;
1164;SDS011;571;50.930;6.926;2023-09-30T04:55:41;11.93;;;7.50;;
1164;SDS011;571;50.930;6.926;2023-09-30T04:58:44;11.73;;;7.33;;
1164;SDS011;571;50.930;6.926;2023-09-30T05:01:22;21.60;;;6.77;;
1164;SDS011;571;50.930;6.926;2023-09-30T05:03:52;11.20;;;7.50;;
1164;SDS011;571;50.930;6.926;2023-09-30T05:13:09;12.20;;;7.87;;
1164;SDS011;571;50.930;6.926;2023-09-30T05:19:16;10.40;;;7.57;;
1164;SDS011;571;50.930;6.926;2023-09-30T05:22:10;13.40;;;7.33;;
1164;SDS011;571;50.930;6.926;2023-09-30T05:24:58;8.67;;;6.60;;
1164;SDS011;571;50.930;6.926;2023-09-30T05:27:58;7.83;;;6.90;;
1164;SDS011;571;50.930;6.926;2023-09-30T05:30:39;12.43;;;7.07;;
1164;SDS011;571;50.930;6.926;2023-09-30T05:39:41;11.73;;;7.23;;
1164;SDS011;571;50.930;6.926;2023-09-30T05:48:03;11.23;;;7.70;;
1164;SDS011;571;50.930;6.926;2023-09-30T05:52:48;14.33;;;7.47;;
1164;SDS011;571;50.930;6.926;2023-09-30T06:06:27;10.17;;;6.47;;
1164;SDS011;571;50.930;6.926;2023-09-30T06:45:15;10.93;;;6.43;;
1164;SDS011;571;50.930;6.926;2023-09-30T07:02:40;12.83;;;8.00;;
1164;SDS011;571;50.930;6.926;2023-09-30T07:22:57;12.30;;;7.90;;
1164;SDS011;571;50.930;6.926;2023-09-30T08:06:25;12.47;;;10.20;;
1164;SDS011;571;50.930;6.926;2023-09-30T08:09:22;14.17;;;9.30;;
1164;SDS011;571;50.930;6.926;2023-09-30T08:12:03;18.40;;;11.37;;
1164;SDS011;571;50.930;6.926;2023-09-30T08:14:40;17.63;;;10.70;;
1164;SDS011;571;50.930;6.926;2023-09-30T08:20:38;10.97;;;9.53;;
1164;SDS011;571;50.930;6.926;2023-09-30T08:23:23;17.17;;;13.93;;
1164;SDS011;571;50.930;6.926;2023-09-30T08:26:06;16.23;;;11.20;;
1164;SDS011;571;50.930;6.926;2023-09-30T08:28:44;14.37;;;11.50;;
1164;SDS011;571;50.930;6.926;2023-09-30T08:31:16;16.17;;;10.73;;
1164;SDS011;571;50.930;6.926;2023-09-30T08:34:06;15.50;;;11.17;;
1164;SDS011;571;50.930;6.926;2023-09-30T08:36:42;17.50;;;11.00;;
1164;SDS011;571;50.930;6.926;2023-09-30T08:39:27;14.70;;;10.70;;
1164;SDS011;571;50.930;6.926;2023-09-30T08:42:06;12.83;;;11.00;;
1164;SDS011;571;50.930;6.926;2023-09-30T08:44:44;15.87;;;11.03;;
1164;SDS011;571;50.930;6.926;2023-09-30T08:47:18;12.17;;;9.90;;
1164;SDS011;571;50.930;6.926;2023-09-30T08:50:07;11.03;;;9.60;;
1164;SDS011;571;50.930;6.926;2023-09-30T08:52:49;11.33;;;10.00;;
1164;SDS011;571;50.930;6.926;2023-09-30T08:55:56;13.03;;;10.20;;
1164;SDS011;571;50.930;6.926;2023-09-30T09:08:39;13.97;;;10.70;;
1164;SDS011;571;50.930;6.926;2023-09-30T09:32:15;16.57;;;10.87;;
1164;SDS011;571;50.930;6.926;2023-09-30T09:35:08;16.30;;;11.13;;
1164;SDS011;571;50.930;6.926;2023-09-30T09:37:54;22.93;;;12.60;;
1164;SDS011;571;50.930;6.926;2023-09-30T09:43:26;25.20;;;13.20;;
1164;SDS011;571;50.930;6.926;2023-09-30T09:46:10;19.27;;;13.40;;
1164;SDS011;571;50.930;6.926;2023-09-30T09:51:31;16.87;;;13.80;;
1164;SDS011;571;50.930;6.926;2023-09-30T11:52:38;5.13;;;3.40;;
1164;SDS011;571;50.930;6.926;2023-09-30T12:03:00;4.10;;;3.30;;
1164;SDS011;571;50.930;6.926;2023-09-30T12:26:56;4.50;;;3.73;;
1164;SDS011;571;50.930;6.926;2023-09-30T12:29:37;6.13;;;3.50;;
1164;SDS011;571;50.930;6.926;2023-09-30T12:32:05;9.70;;;3.53;;
1164;SDS011;571;50.930;6.926;2023-09-30T12:34:33;4.90;;;2.70;;
1164;SDS011;571;50.930;6.926;2023-09-30T12:37:00;4.37;;;2.73;;
1164;SDS011;571;50.930;6.926;2023-09-30T12:39:29;4.37;;;2.30;;
1164;SDS011;571;50.930;6.926;2023-09-30T12:41:58;6.30;;;3.60;;
1164;SDS011;571;50.930;6.926;2023-09-30T12:44:25;7.27;;;3.27;;
1164;SDS011;571;50.930;6.926;2023-09-30T12:46:51;5.60;;;3.27;;
1164;SDS011;571;50.930;6.926;2023-09-30T12:49:21;8.10;;;3.73;;
1164;SDS011;571;50.930;6.926;2023-09-30T12:52:25;6.23;;;2.97;;
1164;SDS011;571;50.930;6.926;2023-09-30T12:58:58;11.50;;;4.10;;
1164;SDS011;571;50.930;6.926;2023-09-30T13:19:51;6.03;;;2.97;;
1164;SDS011;571;50.930;6.926;2023-09-30T13:25:27;5.63;;;3.00;;
1164;SDS011;571;50.930;6.926;2023-09-30T13:28:29;5.40;;;3.33;;
1164;SDS011;571;50.930;6.926;2023-09-30T13:31:36;5.10;;;2.77;;
1164;SDS011;571;50.930;6.926;2023-09-30T13:35:09;4.73;;;2.73;;
1164;SDS011;571;50.930;6.926;2023-09-30T13:38:28;3.73;;;2.17;;
1164;SDS011;571;50.930;6.926;2023-09-30T13:54:11;5.10;;;2.97;;
1164;SDS011;571;50.930;6.926;2023-09-30T13:56:45;13.50;;;4.43;;
1164;SDS011;571;50.930;6.926;2023-09-30T13:59:39;7.80;;;2.77;;
1164;SDS011;571;50.930;6.926;2023-09-30T14:02:20;9.03;;;3.10;;
1164;SDS011;571;50.930;6.926;2023-09-30T14:08:01;4.23;;;2.30;;
1164;SDS011;571;50.930;6.926;2023-09-30T14:10:46;6.13;;;2.80;;
1164;SDS011;571;50.930;6.926;2023-09-30T14:19:55;3.90;;;2.53;;
1164;SDS011;571;50.930;6.926;2023-09-30T14:29:14;3.60;;;2.77;;
1164;SDS011;571;50.930;6.926;2023-09-30T15:15:51;3.60;;;2.40;;
1164;SDS011;571;50.930;6.926;2023-09-30T15:21:40;6.30;;;3.10;;
1164;SDS011;571;50.930;6.926;2023-09-30T15:24:09;4.00;;;2.20;;
1164;SDS011;571;50.930;6.926;2023-09-30T15:26:47;8.20;;;3.10;;
1164;SDS011;571;50.930;6.926;2023-09-30T15:29:19;3.93;;;2.40;;
1164;SDS011;571;50.930;6.926;2023-09-30T15:32:28;3.20;;;2.83;;
1164;SDS011;571;50.930;6.926;2023-09-30T15:35:01;2.93;;;2.30;;
1164;SDS011;571;50.930;6.926;2023-09-30T15:37:55;3.77;;;2.67;;
1164;SDS011;571;50.930;6.926;2023-09-30T15:40:52;6.03;;;3.50;;
1164;SDS011;571;50.930;6.926;2023-09-30T15:50:14;6.90;;;2.60;;
1164;SDS011;571;50.930;6.926;2023-09-30T15:56:32;3.47;;;2.37;;
1164;SDS011;571;50.930;6.926;2023-09-30T15:59:42;6.70;;;2.90;;
1164;SDS011;571;50.930;6.926;2023-09-30T16:02:50;3.03;;;2.63;;
1164;SDS011;571;50.930;6.926;2023-09-30T16:26:15;7.33;;;3.20;;
1164;SDS011;571;50.930;6.926;2023-09-30T16:29:34;4.40;;;2.47;;
1164;SDS011;571;50.930;6.926;2023-09-30T16:32:31;4.80;;;2.90;;
1164;SDS011;571;50.930;6.926;2023-09-30T16:41:55;4.33;;;2.70;;
1164;SDS011;571;50.930;6.926;2023-09-30T16:44:40;8.23;;;3.40;;
1164;SDS011;571;50.930;6.926;2023-09-30T16:47:15;3.23;;;2.50;;
1164;SDS011;571;50.930;6.926;2023-09-30T16:49:42;3.73;;;2.90;;
1164;SDS011;571;50.930;6.926;2023-09-30T16:52:12;4.63;;;3.47;;
1164;SDS011;571;50.930;6.926;2023-09-30T16:54:43;5.10;;;3.20;;
1164;SDS011;571;50.930;6.926;2023-09-30T16:57:38;5.17;;;2.80;;
1164;SDS011;571;50.930;6.926;2023-09-30T17:06:56;5.00;;;2.87;;
1164;SDS011;571;50.930;6.926;2023-09-30T17:10:11;6.70;;;3.67;;
1164;SDS011;571;50.930;6.926;2023-09-30T17:13:04;4.80;;;3.17;;
1164;SDS011;571;50.930;6.926;2023-09-30T17:16:15;13.63;;;4.20;;
1164;SDS011;571;50.930;6.926;2023-09-30T17:22:48;8.70;;;4.33;;
1164;SDS011;571;50.930;6.926;2023-09-30T17:25:55;7.23;;;4.17;;
1164;SDS011;571;50.930;6.926;2023-09-30T17:28:41;6.70;;;4.40;;
1164;SDS011;571;50.930;6.926;2023-09-30T17:31:29;4.70;;;3.33;;
1164;SDS011;571;50.930;6.926;2023-09-30T17:54:13;8.20;;;4.27;;
1164;SDS011;571;50.930;6.926;2023-09-30T17:58:08;6.00;;;4.40;;
1164;SDS011;571;50.930;6.926;2023-09-30T18:04:38;8.43;;;4.87;;
1164;SDS011;571;50.930;6.926;2023-09-30T18:08:37;6.20;;;3.67;;
1164;SDS011;571;50.930;6.926;2023-09-30T19:07:00;9.57;;;7.20;;
1164;SDS011;571;50.930;6.926;2023-09-30T19:27:31;9.63;;;7.90;;
1164;SDS011;571;50.930;6.926;2023-09-30T19:33:43;10.27;;;6.43;;
1164;SDS011;571;50.930;6.926;2023-09-30T19:37:15;10.10;;;7.40;;
1164;SDS011;571;50.930;6.926;2023-09-30T20:47:38;8.80;;;7.03;;
1164;SDS011;571;50.930;6.926;2023-09-30T20:53:57;9.63;;;6.77;;
1164;SDS011;571;50.930;6.926;2023-09-30T21:07:18;7.07;;;5.73;;
1164;SDS011;571;50.930;6.926;2023-09-30T21:15:30;7.07;;;5.70;;
1164;SDS011;571;50.930;6.926;2023-09-30T21:21:56;9.60;;;6.47;;
1164;SDS011;571;50.930;6.926;2023-09-30T21:43:08;9.53;;;6.90;;
1164;SDS011;571;50.930;6.926;2023-09-30T21:46:03;6.80;;;6.10;;
1164;SDS011;571;50.930;6.926;2023-09-30T21:49:11;9.40;;;6.40;;
1164;SDS011;571;50.930;6.926;2023-09-30T21:51:43;7.40;;;6.20;;
1164;SDS011;571;50.930;6.926;2023-09-30T21:54:23;7.53;;;6.37;;
